Fort Lauderdale, FL

3:55 PM EDT on June 28, 2017 (GMT -0400)
Victoria Park | | Change Station

Elev 23 ft 26.13 °N, 80.13 °W | Updated 15 seconds ago

Mostly Cloudy
Mostly Cloudy
85.6 °F
Feels Like 95 °F
N
1.3
Wind Variable Wind from East
Gusts 2.5 mph

Today
High -- | Low -- °F
--% Chance of Precip.
Yesterday
High -- | Low -- °F
Precip. -- in
Pressure 30.02 in
Visibility 10.0 miles
Clouds Few 2500 ft
Scattered Clouds 6000 ft
Mostly Cloudy 15000 ft
Mostly Cloudy 25000 ft
Heat Index 95 °F
Dew Point 75 °F
Humidity 71%
Rainfall 0.00 in
Snow Depth Not available.
6:31 AM 8:16 PM
Waxing Crescent, 28% visible
SPECI KFLL 281901Z 14005KT 10SM FEW025CB SCT060 BKN150 BKN250 29/24 A3002 RMK AO2 LTG DSNT SW-N OCNL LTGIC DSNT N CB W MOV N CBMAM OHD-W CB DSNT N MOV N T02940239
Pressure 30.02 in
Visibility 10.0 miles
Clouds Few 2500 ft
Scattered Clouds 6000 ft
Mostly Cloudy 15000 ft
Mostly Cloudy 25000 ft
Heat Index 95 °F
Dew Point 75 °F
Humidity 71%
Rainfall 0.00 in
Snow Depth Not available.
6:31 AM 8:16 PM
Waxing Crescent, 28% visible
SPECI KFLL 281901Z 14005KT 10SM FEW025CB SCT060 BKN150 BKN250 29/24 A3002 RMK AO2 LTG DSNT SW-N OCNL LTGIC DSNT N CB W MOV N CBMAM OHD-W CB DSNT N MOV N T02940239

Get Severe Weather Alerts

Thanks for signing up!

Be on the lookout for a verification email in your inbox.

You'll start receiving the daily forecast at 6 AM.

×

10-Day Weather Forecast

Almanac

Astronomy

Jun. 28, 2017 Rise Set
Actual Time
Civil Twilight
Nautical Twilight
Astronomical Twilight
Moon
Length of Visible Light
Length of Day
Tomorrow will be .
, % of the Moon is Illuminated

Today's Extremes

State Highs State Lows

Community

WunderPhotos

Category 6

Welcome to Category 6. This is the collective home for Weather Underground's featured writeups by Dr. Jeff Masters (right), Bob Henson (left), Chris Burt, and other regular contributors.

Nearby

Air Quality

  Air Quality AQ Index Pollutant
Not available.

Snow Depth

Station Depth Elevation

Earthquake Activity

City Distance Mag. Time & Date
Minimum magnitude displayed is 2.5.

Coastal Water Temperatures

Place Temperature

Stations

Nearby Weather Stations

Station Location Temp. Windchill Dew Point Humidity Wind Precip. Elev Updated Type
                   

Watches & Warnings

There are currently no watches in effect.